sensor_id;sensor_type;location;lat;lon;timestamp;pressure;altitude;pressure_sealevel;temperature;humidity
48790;BME280;41718;51.980;5.734;2023-05-17T00:02:01;102060.41;;;7.08;100.00
48790;BME280;41718;51.980;5.734;2023-05-17T00:07:02;102062.03;;;7.06;100.00
48790;BME280;41718;51.980;5.734;2023-05-17T00:12:04;102055.41;;;6.93;100.00
48790;BME280;41718;51.980;5.734;2023-05-17T00:17:06;102056.81;;;6.86;100.00
48790;BME280;41718;51.980;5.734;2023-05-17T00:22:07;102052.25;;;6.99;100.00
48790;BME280;41718;51.980;5.734;2023-05-17T00:27:09;102027.94;;;6.92;100.00
48790;BME280;41718;51.980;5.734;2023-05-17T00:32:10;102026.53;;;6.99;100.00
48790;BME280;41718;51.980;5.734;2023-05-17T00:37:12;102014.03;;;6.88;100.00
48790;BME280;41718;51.980;5.734;2023-05-17T00:42:13;101983.28;;;6.91;100.00
48790;BME280;41718;51.980;5.734;2023-05-17T00:47:15;101907.63;;;6.86;100.00
48790;BME280;41718;51.980;5.734;2023-05-17T00:52:16;101845.81;;;6.85;100.00
48790;BME280;41718;51.980;5.734;2023-05-17T00:57:18;101826.59;;;6.77;100.00
48790;BME280;41718;51.980;5.734;2023-05-17T01:02:20;101839.28;;;6.74;100.00
48790;BME280;41718;51.980;5.734;2023-05-17T01:07:22;101833.03;;;6.69;100.00
48790;BME280;41718;51.980;5.734;2023-05-17T01:12:35;101837.09;;;6.63;100.00
48790;BME280;41718;51.980;5.734;2023-05-17T01:17:59;101852.44;;;6.62;100.00
48790;BME280;41718;51.980;5.734;2023-05-17T01:23:47;101860.03;;;6.59;100.00
48790;BME280;41718;51.980;5.734;2023-05-17T01:28:56;101863.31;;;6.56;100.00
48790;BME280;41718;51.980;5.734;2023-05-17T01:33:57;101864.91;;;6.53;100.00
48790;BME280;41718;51.980;5.734;2023-05-17T01:38:59;101874.66;;;6.60;100.00
48790;BME280;41718;51.980;5.734;2023-05-17T01:49:31;101876.75;;;6.69;100.00
48790;BME280;41718;51.980;5.734;2023-05-17T01:54:45;101872.81;;;6.75;100.00
48790;BME280;41718;51.980;5.734;2023-05-17T01:59:48;101871.63;;;6.86;100.00
48790;BME280;41718;51.980;5.734;2023-05-17T02:04:50;101871.75;;;6.89;100.00
48790;BME280;41718;51.980;5.734;2023-05-17T02:09:52;101872.31;;;7.02;100.00
48790;BME280;41718;51.980;5.734;2023-05-17T02:14:53;101881.94;;;7.06;100.00
48790;BME280;41718;51.980;5.734;2023-05-17T02:19:55;101892.72;;;7.16;100.00
48790;BME280;41718;51.980;5.734;2023-05-17T02:24:56;101893.06;;;7.24;100.00
48790;BME280;41718;51.980;5.734;2023-05-17T02:29:58;101895.38;;;7.37;100.00
48790;BME280;41718;51.980;5.734;2023-05-17T02:34:59;101888.06;;;7.47;100.00
48790;BME280;41718;51.980;5.734;2023-05-17T02:40:01;101896.91;;;7.53;100.00
48790;BME280;41718;51.980;5.734;2023-05-17T02:45:04;101898.16;;;7.61;100.00
48790;BME280;41718;51.980;5.734;2023-05-17T02:50:06;101909.72;;;7.71;100.00
48790;BME280;41718;51.980;5.734;2023-05-17T02:55:08;101912.22;;;7.69;100.00
48790;BME280;41718;51.980;5.734;2023-05-17T03:00:10;101911.34;;;7.69;100.00
48790;BME280;41718;51.980;5.734;2023-05-17T03:05:11;101910.75;;;7.75;100.00
48790;BME280;41718;51.980;5.734;2023-05-17T03:10:13;101911.25;;;7.66;100.00
48790;BME280;41718;51.980;5.734;2023-05-17T03:15:14;101925.78;;;7.65;100.00
48790;BME280;41718;51.980;5.734;2023-05-17T03:20:16;101937.78;;;7.65;100.00
48790;BME280;41718;51.980;5.734;2023-05-17T03:25:18;101950.16;;;7.72;100.00
48790;BME280;41718;51.980;5.734;2023-05-17T03:30:20;101961.31;;;7.73;100.00
48790;BME280;41718;51.980;5.734;2023-05-17T03:35:21;101961.13;;;7.68;100.00
48790;BME280;41718;51.980;5.734;2023-05-17T03:40:23;101971.41;;;7.68;100.00
48790;BME280;41718;51.980;5.734;2023-05-17T03:45:26;101973.06;;;7.66;100.00
48790;BME280;41718;51.980;5.734;2023-05-17T03:50:28;101965.22;;;7.64;100.00
48790;BME280;41718;51.980;5.734;2023-05-17T03:55:32;101978.59;;;7.56;100.00
48790;BME280;41718;51.980;5.734;2023-05-17T04:00:33;101981.38;;;7.60;100.00
48790;BME280;41718;51.980;5.734;2023-05-17T04:05:35;101985.00;;;7.46;100.00
48790;BME280;41718;51.980;5.734;2023-05-17T04:10:36;101988.25;;;7.42;100.00
48790;BME280;41718;51.980;5.734;2023-05-17T04:15:42;102001.13;;;7.42;100.00
48790;BME280;41718;51.980;5.734;2023-05-17T04:20:43;101996.66;;;7.38;100.00
48790;BME280;41718;51.980;5.734;2023-05-17T04:25:45;102001.53;;;7.32;100.00
48790;BME280;41718;51.980;5.734;2023-05-17T04:30:47;102008.81;;;7.23;100.00
48790;BME280;41718;51.980;5.734;2023-05-17T04:35:49;102025.78;;;7.19;100.00
48790;BME280;41718;51.980;5.734;2023-05-17T04:40:52;102034.38;;;7.20;100.00
48790;BME280;41718;51.980;5.734;2023-05-17T04:45:58;102038.56;;;7.17;100.00
48790;BME280;41718;51.980;5.734;2023-05-17T04:51:01;102045.41;;;7.17;100.00
48790;BME280;41718;51.980;5.734;2023-05-17T04:56:04;102047.31;;;7.39;100.00
48790;BME280;41718;51.980;5.734;2023-05-17T05:01:07;102052.00;;;7.48;100.00
48790;BME280;41718;51.980;5.734;2023-05-17T05:06:08;102058.56;;;7.41;100.00
48790;BME280;41718;51.980;5.734;2023-05-17T05:11:10;102062.59;;;7.54;100.00
48790;BME280;41718;51.980;5.734;2023-05-17T05:16:11;102073.84;;;7.74;100.00
48790;BME280;41718;51.980;5.734;2023-05-17T05:21:13;102082.81;;;8.01;100.00
48790;BME280;41718;51.980;5.734;2023-05-17T05:26:14;102082.88;;;8.22;100.00
48790;BME280;41718;51.980;5.734;2023-05-17T05:31:16;102089.56;;;8.17;100.00
48790;BME280;41718;51.980;5.734;2023-05-17T05:36:17;102097.19;;;8.15;100.00
48790;BME280;41718;51.980;5.734;2023-05-17T05:41:19;102104.69;;;8.29;100.00
48790;BME280;41718;51.980;5.734;2023-05-17T05:46:21;102107.25;;;8.67;100.00
48790;BME280;41718;51.980;5.734;2023-05-17T05:51:23;102127.16;;;8.50;100.00
48790;BME280;41718;51.980;5.734;2023-05-17T05:56:24;102133.47;;;8.57;100.00
48790;BME280;41718;51.980;5.734;2023-05-17T06:01:30;102145.88;;;8.66;100.00
48790;BME280;41718;51.980;5.734;2023-05-17T06:06:32;102156.94;;;8.83;100.00
48790;BME280;41718;51.980;5.734;2023-05-17T06:11:34;102169.72;;;8.80;100.00
48790;BME280;41718;51.980;5.734;2023-05-17T06:16:35;102180.09;;;9.21;100.00
48790;BME280;41718;51.980;5.734;2023-05-17T06:21:37;102193.34;;;9.71;100.00
48790;BME280;41718;51.980;5.734;2023-05-17T06:26:38;102203.97;;;9.78;100.00
48790;BME280;41718;51.980;5.734;2023-05-17T06:31:41;102225.28;;;9.73;100.00
48790;BME280;41718;51.980;5.734;2023-05-17T06:36:43;102234.03;;;10.20;100.00
48790;BME280;41718;51.980;5.734;2023-05-17T06:41:44;102244.03;;;9.90;100.00
48790;BME280;41718;51.980;5.734;2023-05-17T06:46:46;102249.13;;;10.09;100.00
48790;BME280;41718;51.980;5.734;2023-05-17T06:51:47;102252.94;;;9.75;100.00
48790;BME280;41718;51.980;5.734;2023-05-17T06:56:49;102247.63;;;9.51;100.00
48790;BME280;41718;51.980;5.734;2023-05-17T07:01:50;102248.63;;;9.97;100.00
48790;BME280;41718;51.980;5.734;2023-05-17T07:06:52;102239.97;;;10.38;100.00
48790;BME280;41718;51.980;5.734;2023-05-17T07:11:54;102236.66;;;10.66;100.00
48790;BME280;41718;51.980;5.734;2023-05-17T07:16:55;102231.22;;;10.82;100.00
48790;BME280;41718;51.980;5.734;2023-05-17T07:21:57;102240.44;;;10.74;100.00
48790;BME280;41718;51.980;5.734;2023-05-17T07:26:58;102225.59;;;11.44;100.00
48790;BME280;41718;51.980;5.734;2023-05-17T07:32:00;102250.13;;;10.80;100.00
48790;BME280;41718;51.980;5.734;2023-05-17T07:37:02;102248.25;;;11.24;100.00
48790;BME280;41718;51.980;5.734;2023-05-17T07:42:04;102251.47;;;12.20;100.00
48790;BME280;41718;51.980;5.734;2023-05-17T07:47:06;102256.66;;;11.93;100.00
48790;BME280;41718;51.980;5.734;2023-05-17T07:52:08;102265.78;;;11.82;100.00
48790;BME280;41718;51.980;5.734;2023-05-17T07:57:09;102276.75;;;12.00;100.00
48790;BME280;41718;51.980;5.734;2023-05-17T08:02:11;102274.88;;;12.23;100.00
48790;BME280;41718;51.980;5.734;2023-05-17T08:07:12;102281.19;;;12.88;100.00
48790;BME280;41718;51.980;5.734;2023-05-17T08:12:14;102286.84;;;12.75;100.00
48790;BME280;41718;51.980;5.734;2023-05-17T08:17:16;102284.75;;;13.22;100.00
48790;BME280;41718;51.980;5.734;2023-05-17T08:22:18;102309.00;;;12.35;100.00
48790;BME280;41718;51.980;5.734;2023-05-17T08:27:19;102309.38;;;12.76;100.00
48790;BME280;41718;51.980;5.734;2023-05-17T08:32:21;102317.78;;;12.12;100.00
48790;BME280;41718;51.980;5.734;2023-05-17T08:37:23;102316.16;;;12.42;100.00
48790;BME280;41718;51.980;5.734;2023-05-17T08:42:28;102291.75;;;13.58;100.00
48790;BME280;41718;51.980;5.734;2023-05-17T08:47:30;102320.13;;;13.50;100.00
48790;BME280;41718;51.980;5.734;2023-05-17T08:52:35;102322.25;;;13.32;100.00
48790;BME280;41718;51.980;5.734;2023-05-17T08:57:37;102316.19;;;13.31;100.00
48790;BME280;41718;51.980;5.734;2023-05-17T09:02:41;102327.63;;;13.08;100.00
48790;BME280;41718;51.980;5.734;2023-05-17T09:07:43;102331.94;;;13.37;100.00
48790;BME280;41718;51.980;5.734;2023-05-17T09:12:45;102336.19;;;14.74;100.00
48790;BME280;41718;51.980;5.734;2023-05-17T09:17:53;102416.38;;;13.83;100.00
48790;BME280;41718;51.980;5.734;2023-05-17T09:22:56;102446.13;;;14.95;100.00
48790;BME280;41718;51.980;5.734;2023-05-17T09:28:05;102481.56;;;13.56;100.00
48790;BME280;41718;51.980;5.734;2023-05-17T09:33:10;102480.16;;;14.32;100.00
48790;BME280;41718;51.980;5.734;2023-05-17T09:38:16;102550.28;;;14.57;100.00
48790;BME280;41718;51.980;5.734;2023-05-17T09:43:22;102579.16;;;13.45;100.00
48790;BME280;41718;51.980;5.734;2023-05-17T09:48:26;102572.25;;;14.04;100.00
48790;BME280;41718;51.980;5.734;2023-05-17T09:53:32;102575.53;;;15.29;100.00
48790;BME280;41718;51.980;5.734;2023-05-17T09:58:38;102588.31;;;14.51;100.00
48790;BME280;41718;51.980;5.734;2023-05-17T10:03:40;102589.59;;;13.75;100.00
48790;BME280;41718;51.980;5.734;2023-05-17T10:08:43;102578.78;;;13.90;100.00
48790;BME280;41718;51.980;5.734;2023-05-17T10:14:01;102571.03;;;15.24;100.00
48790;BME280;41718;51.980;5.734;2023-05-17T10:19:06;102581.66;;;14.95;100.00
48790;BME280;41718;51.980;5.734;2023-05-17T10:24:10;102586.56;;;15.19;100.00
48790;BME280;41718;51.980;5.734;2023-05-17T10:29:12;102583.94;;;14.81;100.00
48790;BME280;41718;51.980;5.734;2023-05-17T10:34:16;102573.25;;;15.07;100.00
48790;BME280;41718;51.980;5.734;2023-05-17T10:39:20;102578.84;;;15.60;100.00
48790;BME280;41718;51.980;5.734;2023-05-17T10:44:22;102583.94;;;14.83;100.00
48790;BME280;41718;51.980;5.734;2023-05-17T10:49:36;102576.59;;;15.01;100.00
48790;BME280;41718;51.980;5.734;2023-05-17T10:54:41;102574.09;;;15.06;100.00
48790;BME280;41718;51.980;5.734;2023-05-17T10:59:57;102564.50;;;15.80;100.00
48790;BME280;41718;51.980;5.734;2023-05-17T11:04:59;102559.63;;;15.96;100.00
48790;BME280;41718;51.980;5.734;2023-05-17T11:10:06;102552.16;;;16.14;96.15
48790;BME280;41718;51.980;5.734;2023-05-17T11:15:11;102558.66;;;16.36;98.62
48790;BME280;41718;51.980;5.734;2023-05-17T11:25:17;102554.41;;;16.41;92.76
48790;BME280;41718;51.980;5.734;2023-05-17T11:30:29;102539.31;;;16.73;90.66
48790;BME280;41718;51.980;5.734;2023-05-17T11:35:36;102542.59;;;16.63;93.59
48790;BME280;41718;51.980;5.734;2023-05-17T11:40:39;102543.72;;;16.29;95.62
48790;BME280;41718;51.980;5.734;2023-05-17T11:45:44;102562.84;;;16.28;99.37
48790;BME280;41718;51.980;5.734;2023-05-17T11:50:48;102551.63;;;16.32;95.80
48790;BME280;41718;51.980;5.734;2023-05-17T11:55:50;102546.97;;;17.15;95.26
48790;BME280;41718;51.980;5.734;2023-05-17T12:00:54;102552.47;;;16.31;96.18
48790;BME280;41718;51.980;5.734;2023-05-17T12:06:11;102543.97;;;15.96;93.41
48790;BME280;41718;51.980;5.734;2023-05-17T12:11:17;102553.00;;;16.61;94.84
48790;BME280;41718;51.980;5.734;2023-05-17T12:16:20;102540.53;;;16.95;98.99
48790;BME280;41718;51.980;5.734;2023-05-17T12:21:22;102543.34;;;16.09;94.36
48790;BME280;41718;51.980;5.734;2023-05-17T12:26:24;102540.63;;;16.04;94.40
48790;BME280;41718;51.980;5.734;2023-05-17T12:31:35;102535.97;;;16.82;91.95
48790;BME280;41718;51.980;5.734;2023-05-17T12:36:38;102529.38;;;16.54;92.41
48790;BME280;41718;51.980;5.734;2023-05-17T12:41:41;102546.16;;;16.20;93.96
48790;BME280;41718;51.980;5.734;2023-05-17T12:46:43;102540.09;;;16.22;91.41
48790;BME280;41718;51.980;5.734;2023-05-17T12:51:46;102537.44;;;16.19;91.65
48790;BME280;41718;51.980;5.734;2023-05-17T12:56:47;102535.09;;;16.80;94.21
48790;BME280;41718;51.980;5.734;2023-05-17T13:01:56;102548.69;;;17.13;94.29
48790;BME280;41718;51.980;5.734;2023-05-17T13:06:59;102538.22;;;15.71;91.51
48790;BME280;41718;51.980;5.734;2023-05-17T13:12:06;102527.84;;;15.73;92.48
48790;BME280;41718;51.980;5.734;2023-05-17T13:17:15;102523.72;;;16.29;94.88
48790;BME280;41718;51.980;5.734;2023-05-17T13:22:17;102533.63;;;16.47;96.48
48790;BME280;41718;51.980;5.734;2023-05-17T13:27:18;102522.19;;;15.54;92.96
48790;BME280;41718;51.980;5.734;2023-05-17T13:32:20;102523.06;;;15.96;94.17
48790;BME280;41718;51.980;5.734;2023-05-17T13:37:22;102536.34;;;16.08;98.82
48790;BME280;41718;51.980;5.734;2023-05-17T13:42:23;102516.97;;;15.95;95.46
48790;BME280;41718;51.980;5.734;2023-05-17T13:47:25;102522.31;;;16.01;96.26
48790;BME280;41718;51.980;5.734;2023-05-17T13:52:30;102505.97;;;15.68;95.23
48790;BME280;41718;51.980;5.734;2023-05-17T13:57:31;102511.56;;;15.45;95.04
48790;BME280;41718;51.980;5.734;2023-05-17T14:02:35;102524.72;;;15.51;98.31
48790;BME280;41718;51.980;5.734;2023-05-17T14:07:37;102529.94;;;15.51;94.96
48790;BME280;41718;51.980;5.734;2023-05-17T14:12:43;102516.16;;;15.18;94.21
48790;BME280;41718;51.980;5.734;2023-05-17T14:17:44;102515.75;;;15.38;98.33
48790;BME280;41718;51.980;5.734;2023-05-17T14:22:46;102516.34;;;14.89;99.85
48790;BME280;41718;51.980;5.734;2023-05-17T14:27:47;102517.56;;;15.43;100.00
48790;BME280;41718;51.980;5.734;2023-05-17T14:32:49;102515.53;;;14.92;97.02
48790;BME280;41718;51.980;5.734;2023-05-17T14:37:51;102516.63;;;15.37;100.00
48790;BME280;41718;51.980;5.734;2023-05-17T14:42:54;102533.09;;;14.99;98.58
48790;BME280;41718;51.980;5.734;2023-05-17T14:47:56;102531.69;;;14.77;99.40
48790;BME280;41718;51.980;5.734;2023-05-17T14:52:57;102530.59;;;14.69;99.46
48790;BME280;41718;51.980;5.734;2023-05-17T14:57:59;102537.69;;;14.74;99.29
48790;BME280;41718;51.980;5.734;2023-05-17T15:03:02;102547.47;;;14.48;100.00
48790;BME280;41718;51.980;5.734;2023-05-17T15:08:04;102548.94;;;14.09;100.00
48790;BME280;41718;51.980;5.734;2023-05-17T15:13:05;102551.00;;;14.20;100.00
48790;BME280;41718;51.980;5.734;2023-05-17T15:18:07;102542.22;;;14.17;98.83
48790;BME280;41718;51.980;5.734;2023-05-17T15:23:08;102550.78;;;14.44;100.00
48790;BME280;41718;51.980;5.734;2023-05-17T15:28:10;102535.66;;;14.63;100.00
48790;BME280;41718;51.980;5.734;2023-05-17T15:33:11;102532.38;;;14.06;99.50
48790;BME280;41718;51.980;5.734;2023-05-17T15:38:13;102535.28;;;14.17;100.00
48790;BME280;41718;51.980;5.734;2023-05-17T15:43:15;102541.34;;;14.16;100.00
48790;BME280;41718;51.980;5.734;2023-05-17T15:48:16;102541.31;;;14.15;100.00
48790;BME280;41718;51.980;5.734;2023-05-17T15:53:19;102536.31;;;14.22;100.00
48790;BME280;41718;51.980;5.734;2023-05-17T15:58:23;102537.31;;;14.27;100.00
48790;BME280;41718;51.980;5.734;2023-05-17T16:03:25;102524.78;;;14.13;100.00
48790;BME280;41718;51.980;5.734;2023-05-17T16:08:26;102525.59;;;14.12;100.00
48790;BME280;41718;51.980;5.734;2023-05-17T16:13:28;102530.19;;;14.20;100.00
48790;BME280;41718;51.980;5.734;2023-05-17T16:18:29;102515.91;;;14.39;100.00
48790;BME280;41718;51.980;5.734;2023-05-17T16:23:32;102519.19;;;13.99;100.00
48790;BME280;41718;51.980;5.734;2023-05-17T16:28:33;102520.31;;;14.09;100.00
48790;BME280;41718;51.980;5.734;2023-05-17T16:33:37;102514.56;;;14.20;100.00
48790;BME280;41718;51.980;5.734;2023-05-17T16:38:38;102523.97;;;14.15;100.00
48790;BME280;41718;51.980;5.734;2023-05-17T16:43:40;102529.78;;;14.06;100.00
48790;BME280;41718;51.980;5.734;2023-05-17T16:48:41;102521.47;;;14.51;100.00
48790;BME280;41718;51.980;5.734;2023-05-17T16:53:43;102522.53;;;14.26;100.00
48790;BME280;41718;51.980;5.734;2023-05-17T16:58:44;102525.78;;;14.49;100.00
48790;BME280;41718;51.980;5.734;2023-05-17T17:03:46;102537.13;;;14.20;100.00
48790;BME280;41718;51.980;5.734;2023-05-17T17:08:48;102530.50;;;14.01;100.00
48790;BME280;41718;51.980;5.734;2023-05-17T17:13:50;102550.91;;;14.17;100.00
48790;BME280;41718;51.980;5.734;2023-05-17T17:18:51;102557.50;;;13.74;100.00
48790;BME280;41718;51.980;5.734;2023-05-17T17:23:53;102563.16;;;13.61;100.00
48790;BME280;41718;51.980;5.734;2023-05-17T17:28:55;102572.16;;;13.44;100.00
48790;BME280;41718;51.980;5.734;2023-05-17T17:33:56;102565.91;;;14.26;100.00
48790;BME280;41718;51.980;5.734;2023-05-17T17:38:58;102570.59;;;14.39;100.00
48790;BME280;41718;51.980;5.734;2023-05-17T17:44:00;102564.66;;;13.82;100.00
48790;BME280;41718;51.980;5.734;2023-05-17T17:49:02;102568.28;;;13.87;100.00
48790;BME280;41718;51.980;5.734;2023-05-17T17:54:05;102562.47;;;13.67;100.00
48790;BME280;41718;51.980;5.734;2023-05-17T17:59:07;102561.47;;;13.92;100.00
48790;BME280;41718;51.980;5.734;2023-05-17T18:04:09;102563.13;;;13.60;100.00
48790;BME280;41718;51.980;5.734;2023-05-17T18:09:11;102570.69;;;13.23;100.00
48790;BME280;41718;51.980;5.734;2023-05-17T18:14:13;102570.06;;;13.05;100.00
48790;BME280;41718;51.980;5.734;2023-05-17T18:19:15;102569.81;;;12.72;100.00
48790;BME280;41718;51.980;5.734;2023-05-17T18:24:17;102578.06;;;12.60;100.00
48790;BME280;41718;51.980;5.734;2023-05-17T18:29:19;102580.56;;;12.57;100.00
48790;BME280;41718;51.980;5.734;2023-05-17T18:34:20;102575.06;;;12.48;100.00
48790;BME280;41718;51.980;5.734;2023-05-17T18:39:22;102578.25;;;12.17;100.00
48790;BME280;41718;51.980;5.734;2023-05-17T18:44:24;102579.41;;;12.01;100.00
48790;BME280;41718;51.980;5.734;2023-05-17T18:49:26;102592.97;;;11.72;100.00
48790;BME280;41718;51.980;5.734;2023-05-17T18:54:27;102589.94;;;11.61;100.00
48790;BME280;41718;51.980;5.734;2023-05-17T18:59:29;102596.13;;;11.42;100.00
48790;BME280;41718;51.980;5.734;2023-05-17T19:04:32;102595.66;;;11.09;100.00
48790;BME280;41718;51.980;5.734;2023-05-17T19:09:34;102602.44;;;11.28;100.00
48790;BME280;41718;51.980;5.734;2023-05-17T19:14:35;102602.72;;;11.13;100.00
48790;BME280;41718;51.980;5.734;2023-05-17T19:19:38;102614.84;;;10.93;100.00
48790;BME280;41718;51.980;5.734;2023-05-17T19:24:40;102622.16;;;10.82;100.00
48790;BME280;41718;51.980;5.734;2023-05-17T19:29:47;102624.25;;;10.51;100.00
48790;BME280;41718;51.980;5.734;2023-05-17T19:34:49;102629.16;;;10.25;100.00
48790;BME280;41718;51.980;5.734;2023-05-17T19:39:51;102619.53;;;10.23;100.00
48790;BME280;41718;51.980;5.734;2023-05-17T19:44:53;102618.38;;;10.16;100.00
48790;BME280;41718;51.980;5.734;2023-05-17T19:49:54;102624.69;;;9.86;100.00
48790;BME280;41718;51.980;5.734;2023-05-17T19:54:56;102610.56;;;9.77;100.00
48790;BME280;41718;51.980;5.734;2023-05-17T19:59:58;102597.50;;;9.56;100.00
48790;BME280;41718;51.980;5.734;2023-05-17T20:05:02;102591.84;;;9.28;100.00
48790;BME280;41718;51.980;5.734;2023-05-17T20:10:04;102575.03;;;9.36;100.00
48790;BME280;41718;51.980;5.734;2023-05-17T20:15:07;102560.03;;;9.11;100.00
48790;BME280;41718;51.980;5.734;2023-05-17T20:20:09;102541.31;;;8.97;100.00
48790;BME280;41718;51.980;5.734;2023-05-17T20:25:11;102539.22;;;8.56;100.00
48790;BME280;41718;51.980;5.734;2023-05-17T20:30:13;102524.66;;;8.57;100.00
48790;BME280;41718;51.980;5.734;2023-05-17T20:35:14;102516.78;;;8.37;100.00
48790;BME280;41718;51.980;5.734;2023-05-17T20:40:16;102494.53;;;8.39;100.00
48790;BME280;41718;51.980;5.734;2023-05-17T20:45:18;102492.88;;;8.23;100.00
48790;BME280;41718;51.980;5.734;2023-05-17T20:50:19;102475.47;;;8.19;100.00
48790;BME280;41718;51.980;5.734;2023-05-17T20:55:22;102474.09;;;7.93;100.00
48790;BME280;41718;51.980;5.734;2023-05-17T21:00:23;102465.13;;;7.85;100.00
48790;BME280;41718;51.980;5.734;2023-05-17T21:05:25;102463.59;;;7.89;100.00
48790;BME280;41718;51.980;5.734;2023-05-17T21:10:28;102463.03;;;7.78;100.00
48790;BME280;41718;51.980;5.734;2023-05-17T21:15:30;102456.50;;;7.52;100.00
48790;BME280;41718;51.980;5.734;2023-05-17T21:20:34;102462.69;;;7.56;100.00
48790;BME280;41718;51.980;5.734;2023-05-17T21:25:35;102461.22;;;7.28;100.00
48790;BME280;41718;51.980;5.734;2023-05-17T21:30:38;102463.00;;;7.14;100.00
48790;BME280;41718;51.980;5.734;2023-05-17T21:35:39;102444.00;;;7.27;100.00
48790;BME280;41718;51.980;5.734;2023-05-17T21:40:44;102442.69;;;7.19;100.00
48790;BME280;41718;51.980;5.734;2023-05-17T21:45:46;102443.25;;;6.82;100.00
48790;BME280;41718;51.980;5.734;2023-05-17T21:50:47;102436.69;;;6.87;100.00
48790;BME280;41718;51.980;5.734;2023-05-17T21:55:50;102431.19;;;6.81;100.00
48790;BME280;41718;51.980;5.734;2023-05-17T22:00:57;102427.84;;;6.68;100.00
48790;BME280;41718;51.980;5.734;2023-05-17T22:05:59;102426.19;;;6.53;100.00
48790;BME280;41718;51.980;5.734;2023-05-17T22:11:01;102419.91;;;6.48;100.00
48790;BME280;41718;51.980;5.734;2023-05-17T22:16:04;102432.06;;;6.36;100.00
48790;BME280;41718;51.980;5.734;2023-05-17T22:21:06;102416.88;;;6.26;100.00
48790;BME280;41718;51.980;5.734;2023-05-17T22:26:11;102426.53;;;6.00;100.00
48790;BME280;41718;51.980;5.734;2023-05-17T22:31:15;102423.38;;;6.19;100.00
48790;BME280;41718;51.980;5.734;2023-05-17T22:36:21;102428.66;;;5.93;100.00
48790;BME280;41718;51.980;5.734;2023-05-17T22:41:27;102429.88;;;5.99;100.00
48790;BME280;41718;51.980;5.734;2023-05-17T22:46:32;102421.81;;;5.93;100.00
48790;BME280;41718;51.980;5.734;2023-05-17T22:51:34;102431.16;;;5.78;100.00
48790;BME280;41718;51.980;5.734;2023-05-17T22:56:35;102433.53;;;5.75;100.00
48790;BME280;41718;51.980;5.734;2023-05-17T23:01:37;102434.56;;;5.64;100.00
48790;BME280;41718;51.980;5.734;2023-05-17T23:06:38;102429.88;;;5.56;100.00
48790;BME280;41718;51.980;5.734;2023-05-17T23:11:40;102451.28;;;5.57;100.00
48790;BME280;41718;51.980;5.734;2023-05-17T23:16:41;102446.56;;;5.50;100.00
48790;BME280;41718;51.980;5.734;2023-05-17T23:21:43;102446.09;;;5.42;100.00
48790;BME280;41718;51.980;5.734;2023-05-17T23:26:46;102447.63;;;5.25;100.00
48790;BME280;41718;51.980;5.734;2023-05-17T23:31:48;102444.97;;;5.24;100.00
48790;BME280;41718;51.980;5.734;2023-05-17T23:36:51;102443.88;;;5.20;100.00
48790;BME280;41718;51.980;5.734;2023-05-17T23:41:52;102449.94;;;4.94;100.00
48790;BME280;41718;51.980;5.734;2023-05-17T23:46:54;102450.63;;;5.05;100.00
48790;BME280;41718;51.980;5.734;2023-05-17T23:51:56;102449.94;;;4.94;100.00
48790;BME280;41718;51.980;5.734;2023-05-17T23:56:58;102439.19;;;4.87;100.00
